X  Close Metar Aviation Weather Data     YPAD Adelaide International Airport
Temperature
11°C Temperature
5°C Dewpoint
67% Humidity



Wind
21 KM/H
13 MPH
6 M/S
11 KTS



20°
NNE
Current Conditions

Mostly Scattered Clouds Mostly Scattered Clouds
Pressure 1010.92 (hPa) - 29.85 (inHg)
Visibility 6.2 (mile) - 10 (km)
Airport
Airport-code YPAD

Location: Adelaide International Airport
Distance: 20 (km)

Metar:
YPAD 011700Z AUTO 02011KT 9999 // SCT061 11/05 Q1011

Time: 02-08-2021 2:30 am ACST